createdAt,value
2022-10-02T00:02:19.503Z,12.17
2022-10-02T00:05:07.531Z,12.15
2022-10-02T00:07:47.266Z,12.16
2022-10-02T00:10:26.958Z,12.15
2022-10-02T00:12:59.161Z,12.14
2022-10-02T00:15:32.238Z,12.13
2022-10-02T00:18:08.059Z,12.13
2022-10-02T00:20:55.192Z,12.09
2022-10-02T00:23:30.949Z,12.06
2022-10-02T00:26:13.181Z,12.01
2022-10-02T00:28:53.757Z,11.95
2022-10-02T00:31:29.115Z,11.95
2022-10-02T00:34:15.295Z,11.93
2022-10-02T00:36:45.439Z,11.95
2022-10-02T00:39:35.011Z,11.96
2022-10-02T00:42:17.107Z,12.01
2022-10-02T00:44:56.489Z,12.02
2022-10-02T00:47:30.966Z,12.06
2022-10-02T00:50:15.799Z,12.10
2022-10-02T00:52:51.466Z,12.13
2022-10-02T00:55:37.782Z,12.15
2022-10-02T00:58:19.613Z,12.14
2022-10-02T01:01:22.739Z,12.12
2022-10-02T01:03:54.535Z,12.09
2022-10-02T01:06:25.504Z,12.04
2022-10-02T01:08:54.119Z,12.00
2022-10-02T01:11:24.225Z,11.97
2022-10-02T01:13:51.751Z,11.96
2022-10-02T01:16:19.099Z,11.94
2022-10-02T01:18:48.336Z,11.93
2022-10-02T01:21:32.601Z,11.91
2022-10-02T01:24:22.094Z,11.89
2022-10-02T01:26:49.174Z,11.88
2022-10-02T01:29:16.005Z,11.86
2022-10-02T01:31:42.962Z,11.81
2022-10-02T01:34:10.717Z,11.78
2022-10-02T01:36:37.898Z,11.75
2022-10-02T01:39:05.432Z,11.71
2022-10-02T01:41:40.048Z,11.74
2022-10-02T01:44:07.086Z,11.76
2022-10-02T01:47:04.092Z,11.78
2022-10-02T01:50:07.781Z,11.80
2022-10-02T01:52:52.490Z,11.80
2022-10-02T01:55:22.177Z,11.81
2022-10-02T01:58:06.699Z,11.82
2022-10-02T02:00:57.670Z,11.83
2022-10-02T02:03:30.347Z,11.83
2022-10-02T02:06:01.588Z,11.83
2022-10-02T02:08:30.424Z,11.83
2022-10-02T02:11:16.050Z,11.82
2022-10-02T02:13:50.881Z,11.81
2022-10-02T02:16:42.788Z,11.79
2022-10-02T02:19:25.123Z,11.79
2022-10-02T02:22:21.134Z,11.81
2022-10-02T02:25:11.220Z,11.81
2022-10-02T02:27:44.959Z,11.84
2022-10-02T02:30:14.488Z,11.82
2022-10-02T02:32:47.963Z,11.86
2022-10-02T02:35:46.931Z,11.85
2022-10-02T02:38:29.231Z,11.81
2022-10-02T02:41:00.337Z,11.79
2022-10-02T02:43:35.494Z,11.77
2022-10-02T02:46:15.155Z,11.76
2022-10-02T02:48:55.334Z,11.74
2022-10-02T02:51:28.480Z,11.73
2022-10-02T02:54:29.017Z,11.76
2022-10-02T02:56:58.794Z,11.79
2022-10-02T02:59:31.435Z,11.81
2022-10-02T03:01:59.610Z,11.84
2022-10-02T03:04:26.996Z,11.86
2022-10-02T03:06:59.266Z,11.90
2022-10-02T03:09:28.643Z,11.91
2022-10-02T03:12:19.489Z,11.92
2022-10-02T03:14:54.836Z,11.91
2022-10-02T03:17:39.966Z,11.93
2022-10-02T03:20:34.716Z,11.93
2022-10-02T03:23:11.059Z,11.90
2022-10-02T03:25:51.600Z,11.91
2022-10-02T03:28:55.890Z,11.90
2022-10-02T03:31:25.663Z,11.84
2022-10-02T03:33:54.546Z,11.82
2022-10-02T03:36:22.006Z,11.78
2022-10-02T03:39:00.710Z,11.74
2022-10-02T03:41:36.537Z,11.73
2022-10-02T03:44:03.463Z,11.74
2022-10-02T03:46:30.920Z,11.73
2022-10-02T03:49:00.267Z,11.74
2022-10-02T03:51:26.858Z,11.76
2022-10-02T03:53:57.845Z,11.77
2022-10-02T03:56:43.922Z,11.78
2022-10-02T03:59:31.069Z,11.80
2022-10-02T04:02:02.029Z,11.82
2022-10-02T04:04:39.171Z,11.83
2022-10-02T04:07:13.301Z,11.83
2022-10-02T04:09:50.526Z,11.82
2022-10-02T04:12:26.221Z,11.80
2022-10-02T04:15:00.370Z,11.77
2022-10-02T04:17:38.631Z,11.74
2022-10-02T04:20:18.524Z,11.71
2022-10-02T04:22:57.768Z,11.70
2022-10-02T04:25:29.742Z,11.69
2022-10-02T04:28:02.971Z,11.67
2022-10-02T04:30:30.506Z,11.64
2022-10-02T04:33:05.873Z,11.62
2022-10-02T04:35:39.735Z,11.60
2022-10-02T04:38:19.989Z,11.57
2022-10-02T04:41:11.138Z,11.55
2022-10-02T04:43:46.102Z,11.55
2022-10-02T04:46:31.149Z,11.55
2022-10-02T04:49:21.905Z,11.51
2022-10-02T04:52:11.104Z,11.47
2022-10-02T04:55:03.717Z,11.43
2022-10-02T04:58:01.943Z,11.39
2022-10-02T05:00:41.923Z,11.33
2022-10-02T05:03:41.194Z,11.29
2022-10-02T05:06:13.976Z,11.24
2022-10-02T05:08:59.248Z,11.21
2022-10-02T05:11:47.006Z,11.15
2022-10-02T05:14:28.770Z,11.09
2022-10-02T05:17:13.466Z,11.03
2022-10-02T05:19:57.843Z,11.03
2022-10-02T05:22:43.174Z,11.02
2022-10-02T05:25:35.734Z,11.04
2022-10-02T05:28:12.132Z,11.07
2022-10-02T05:30:48.922Z,11.13
2022-10-02T05:33:54.395Z,11.20
2022-10-02T05:36:31.122Z,11.24
2022-10-02T05:39:11.444Z,11.29
2022-10-02T05:41:45.490Z,11.33
2022-10-02T05:44:15.266Z,11.36
2022-10-02T05:47:05.847Z,11.40
2022-10-02T05:49:44.892Z,11.41
2022-10-02T05:52:19.881Z,11.43
2022-10-02T05:54:53.028Z,11.45
2022-10-02T05:57:37.236Z,11.41
2022-10-02T06:00:07.713Z,11.43
2022-10-02T06:02:45.307Z,11.43
2022-10-02T06:05:18.593Z,11.41
2022-10-02T06:07:52.126Z,11.42
2022-10-02T06:10:30.366Z,11.41
2022-10-02T06:13:09.448Z,11.44
2022-10-02T06:16:05.485Z,11.47
2022-10-02T06:18:35.596Z,11.48
2022-10-02T06:21:08.919Z,11.50
2022-10-02T06:23:40.859Z,11.53
2022-10-02T06:26:15.326Z,11.56
2022-10-02T06:28:54.189Z,11.60
2022-10-02T06:31:55.166Z,11.62
2022-10-02T06:34:23.221Z,11.64
2022-10-02T06:36:49.649Z,11.68
2022-10-02T06:40:02.015Z,11.74
2022-10-02T06:42:49.483Z,11.78
2022-10-02T06:45:46.541Z,11.81
2022-10-02T06:48:38.377Z,11.87
2022-10-02T06:51:21.305Z,11.92
2022-10-02T06:53:54.007Z,11.97
2022-10-02T06:56:50.483Z,12.02
2022-10-02T06:59:30.140Z,12.08
2022-10-02T07:02:04.753Z,12.14
2022-10-02T07:04:31.384Z,12.18
2022-10-02T07:07:30.490Z,12.26
2022-10-02T07:10:38.714Z,12.30
2022-10-02T07:13:12.034Z,12.37
2022-10-02T07:15:50.325Z,12.42
2022-10-02T07:18:42.816Z,12.46
2022-10-02T07:21:36.110Z,12.52
2022-10-02T07:24:59.601Z,12.58
2022-10-02T07:27:42.865Z,12.60
2022-10-02T07:30:12.816Z,12.66
2022-10-02T07:32:43.122Z,12.70
2022-10-02T07:35:40.962Z,12.76
2022-10-02T07:38:43.989Z,12.80
2022-10-02T07:41:49.028Z,12.91
2022-10-02T07:44:43.359Z,13.11
2022-10-02T07:47:31.666Z,13.31
2022-10-02T07:50:12.461Z,13.53
2022-10-02T07:52:38.985Z,13.75
2022-10-02T07:55:15.248Z,13.95
2022-10-02T07:58:07.118Z,14.22
2022-10-02T08:00:44.131Z,14.44
2022-10-02T08:03:17.627Z,14.85
2022-10-02T08:05:48.374Z,15.55
2022-10-02T08:08:24.428Z,16.07
2022-10-02T08:11:02.932Z,15.75
2022-10-02T08:13:36.795Z,15.56
2022-10-02T08:16:06.634Z,15.53
2022-10-02T08:18:44.686Z,15.57
2022-10-02T08:21:20.106Z,15.61
2022-10-02T08:23:56.292Z,15.55
2022-10-02T08:26:36.025Z,15.51
2022-10-02T08:29:21.153Z,15.40
2022-10-02T08:31:51.580Z,15.37
2022-10-02T08:34:26.539Z,15.51
2022-10-02T08:37:08.615Z,15.71
2022-10-02T08:39:57.356Z,15.81
2022-10-02T08:42:47.830Z,16.24
2022-10-02T08:45:54.323Z,17.29
2022-10-02T08:48:30.142Z,17.54
2022-10-02T08:51:08.500Z,17.54
2022-10-02T08:54:04.676Z,17.59
2022-10-02T08:56:46.267Z,17.24
2022-10-02T08:59:33.465Z,16.97
2022-10-02T09:02:20.070Z,16.87
2022-10-02T09:05:01.296Z,17.15
2022-10-02T09:08:09.414Z,17.42
2022-10-02T09:11:14.935Z,17.82
2022-10-02T09:14:02.924Z,17.68
2022-10-02T09:16:40.272Z,17.76
2022-10-02T09:19:29.695Z,17.65
2022-10-02T09:22:11.068Z,17.91
2022-10-02T09:25:23.950Z,17.97
2022-10-02T09:28:40.352Z,17.59
2022-10-02T09:31:15.402Z,17.09
2022-10-02T09:34:03.217Z,16.77
2022-10-02T09:36:46.227Z,16.65
2022-10-02T09:39:34.370Z,16.64
2022-10-02T09:42:20.289Z,16.54
2022-10-02T09:45:11.569Z,16.46
2022-10-02T09:48:08.853Z,16.51
2022-10-02T09:50:41.452Z,16.78
2022-10-02T09:54:02.160Z,16.85
2022-10-02T09:56:53.572Z,17.14
2022-10-02T09:59:46.530Z,17.17
2022-10-02T10:02:55.025Z,17.16
2022-10-02T10:05:46.060Z,17.25
2022-10-02T10:08:36.711Z,17.22
2022-10-02T10:11:51.819Z,17.33
2022-10-02T10:14:44.059Z,17.42
2022-10-02T10:17:25.968Z,17.35
2022-10-02T10:20:26.545Z,17.33
2022-10-02T10:23:05.820Z,17.31
2022-10-02T10:25:59.285Z,17.31
2022-10-02T10:28:50.111Z,17.41
2022-10-02T10:31:47.386Z,17.56
2022-10-02T10:34:55.795Z,17.61
2022-10-02T10:38:06.097Z,17.66
2022-10-02T10:40:42.877Z,17.58
2022-10-02T10:43:32.653Z,17.59
2022-10-02T10:46:31.482Z,17.58
2022-10-02T10:49:20.031Z,17.37
2022-10-02T10:52:22.578Z,17.22
2022-10-02T10:55:00.361Z,16.97
2022-10-02T10:57:42.758Z,16.79
2022-10-02T11:00:24.917Z,16.69
2022-10-02T11:03:10.255Z,16.48
2022-10-02T11:05:58.607Z,16.40
2022-10-02T11:08:46.619Z,16.25
2022-10-02T11:11:19.222Z,16.26
2022-10-02T11:14:08.920Z,16.23
2022-10-02T11:16:45.720Z,16.17
2022-10-02T11:19:41.547Z,16.04
2022-10-02T11:22:28.391Z,16.02
2022-10-02T11:25:13.112Z,15.97
2022-10-02T11:27:42.595Z,15.96
2022-10-02T11:30:20.722Z,16.02
2022-10-02T11:33:09.072Z,16.23
2022-10-02T11:35:55.302Z,16.71
2022-10-02T11:38:54.117Z,17.25
2022-10-02T11:41:45.378Z,17.87
2022-10-02T11:44:35.172Z,18.04
2022-10-02T11:47:50.497Z,17.79
2022-10-02T11:50:32.960Z,17.42
2022-10-02T11:53:11.523Z,17.30
2022-10-02T11:55:47.275Z,17.25
2022-10-02T11:58:42.055Z,17.55
2022-10-02T12:01:21.285Z,18.08
2022-10-02T12:03:51.004Z,18.66
2022-10-02T12:06:23.987Z,19.06
2022-10-02T12:09:12.605Z,19.07
2022-10-02T12:11:56.955Z,18.91
2022-10-02T12:14:54.420Z,19.08
2022-10-02T12:17:33.153Z,19.51
2022-10-02T12:20:51.896Z,19.24
2022-10-02T12:24:08.149Z,19.33
2022-10-02T12:26:59.465Z,19.31
2022-10-02T12:30:07.116Z,18.82
2022-10-02T12:32:46.022Z,18.35
2022-10-02T12:35:31.740Z,17.88
2022-10-02T12:38:14.574Z,17.41
2022-10-02T12:41:32.870Z,17.05
2022-10-02T12:44:37.294Z,17.09
2022-10-02T12:47:43.041Z,17.58
2022-10-02T12:50:24.371Z,18.09
2022-10-02T12:53:37.719Z,18.48
2022-10-02T12:56:21.813Z,18.73
2022-10-02T12:59:13.315Z,18.95
2022-10-02T13:01:46.276Z,19.00
2022-10-02T13:04:41.137Z,18.96
2022-10-02T13:07:26.419Z,19.10
2022-10-02T13:09:58.858Z,19.27
2022-10-02T13:12:59.523Z,19.56
2022-10-02T13:15:46.865Z,19.38
2022-10-02T13:18:34.406Z,19.36
2022-10-02T13:21:25.380Z,19.36
2022-10-02T13:24:10.321Z,19.45
2022-10-02T13:26:56.678Z,19.32
2022-10-02T13:29:48.241Z,18.68
2022-10-02T13:32:32.835Z,18.08
2022-10-02T13:35:21.133Z,17.71
2022-10-02T13:37:56.461Z,17.40
2022-10-02T13:41:07.501Z,17.26
2022-10-02T13:44:20.179Z,17.07
2022-10-02T13:47:01.649Z,16.82
2022-10-02T13:50:05.913Z,16.55
2022-10-02T13:52:45.188Z,16.42
2022-10-02T13:55:27.023Z,16.31
2022-10-02T13:58:19.462Z,16.18
2022-10-02T14:01:01.698Z,16.15
2022-10-02T14:03:59.553Z,16.07
2022-10-02T14:06:40.358Z,16.12
2022-10-02T14:09:34.501Z,16.11
2022-10-02T14:12:27.842Z,16.29
2022-10-02T14:15:01.282Z,16.52
2022-10-02T14:18:05.517Z,16.62
2022-10-02T14:20:55.701Z,16.66
2022-10-02T14:23:31.048Z,16.67
2022-10-02T14:26:36.239Z,16.58
2022-10-02T14:29:25.861Z,16.39
2022-10-02T14:32:11.353Z,16.37
2022-10-02T14:35:02.780Z,16.32
2022-10-02T14:37:52.469Z,16.27
2022-10-02T14:40:19.787Z,16.19
2022-10-02T14:43:11.309Z,16.03
2022-10-02T14:46:07.680Z,15.89
2022-10-02T14:48:43.842Z,15.77
2022-10-02T14:51:21.057Z,15.66
2022-10-02T14:54:06.378Z,15.53
2022-10-02T14:57:10.344Z,15.50
2022-10-02T14:59:46.739Z,15.47
2022-10-02T15:02:31.679Z,15.41
2022-10-02T15:05:04.742Z,15.35
2022-10-02T15:07:34.647Z,15.29
2022-10-02T15:10:21.260Z,15.21
2022-10-02T15:13:10.083Z,15.12
2022-10-02T15:16:21.459Z,15.03
2022-10-02T15:18:58.098Z,14.95
2022-10-02T15:21:40.642Z,14.92
2022-10-02T15:24:29.736Z,14.94
2022-10-02T15:27:16.412Z,14.99
2022-10-02T15:29:49.564Z,15.01
2022-10-02T15:32:50.721Z,15.07
2022-10-02T15:35:45.373Z,15.13
2022-10-02T15:38:27.129Z,15.17
2022-10-02T15:40:56.978Z,15.21
2022-10-02T15:43:41.880Z,15.22
2022-10-02T15:46:32.138Z,15.23
2022-10-02T15:49:13.866Z,15.23
2022-10-02T15:52:08.890Z,15.23
2022-10-02T15:54:54.475Z,15.24
2022-10-02T15:57:42.349Z,15.21
2022-10-02T16:00:15.895Z,15.17
2022-10-02T16:02:57.573Z,15.14
2022-10-02T16:05:44.438Z,15.12
2022-10-02T16:08:45.272Z,15.05
2022-10-02T16:11:26.956Z,14.98
2022-10-02T16:14:00.353Z,14.90
2022-10-02T16:16:51.970Z,14.87
2022-10-02T16:19:38.315Z,14.81
2022-10-02T16:22:26.101Z,14.79
2022-10-02T16:25:07.797Z,14.76
2022-10-02T16:27:52.578Z,14.73
2022-10-02T16:30:25.412Z,14.68
2022-10-02T16:33:09.150Z,14.64
2022-10-02T16:36:02.042Z,14.57
2022-10-02T16:38:38.592Z,14.52
2022-10-02T16:41:38.734Z,14.45
2022-10-02T16:44:27.316Z,14.38
2022-10-02T16:46:58.017Z,14.31
2022-10-02T16:49:57.443Z,14.23
2022-10-02T16:52:23.854Z,14.16
2022-10-02T16:55:05.499Z,14.08
2022-10-02T16:57:34.916Z,13.98
2022-10-02T17:00:25.622Z,13.94
2022-10-02T17:03:28.284Z,13.86
2022-10-02T17:06:02.190Z,13.79
2022-10-02T17:08:50.669Z,13.66
2022-10-02T17:11:20.267Z,13.62
2022-10-02T17:14:02.308Z,13.59
2022-10-02T17:16:53.354Z,13.52
2022-10-02T17:19:33.113Z,13.45
2022-10-02T17:22:31.692Z,13.38
2022-10-02T17:25:27.285Z,13.27
2022-10-02T17:28:06.614Z,13.21
2022-10-02T17:30:56.676Z,13.13
2022-10-02T17:33:27.817Z,13.07
2022-10-02T17:35:54.345Z,12.98
2022-10-02T17:38:24.183Z,12.94
2022-10-02T17:41:00.937Z,12.90
2022-10-02T17:43:50.324Z,12.74
2022-10-02T17:46:20.381Z,12.69
2022-10-02T17:49:05.811Z,12.58
2022-10-02T17:51:52.906Z,12.53
2022-10-02T17:55:13.154Z,12.50
2022-10-02T17:58:01.127Z,12.41
2022-10-02T18:00:31.439Z,12.36
2022-10-02T18:03:15.039Z,12.31
2022-10-02T18:06:08.391Z,12.27
2022-10-02T18:09:04.254Z,12.20
2022-10-02T18:11:51.515Z,12.12
2022-10-02T18:14:36.253Z,12.04
2022-10-02T18:17:18.951Z,11.93
2022-10-02T18:19:52.042Z,11.84
2022-10-02T18:22:57.419Z,11.75
2022-10-02T18:25:54.902Z,11.68
2022-10-02T18:28:21.426Z,11.64
2022-10-02T18:31:14.662Z,11.58
2022-10-02T18:34:07.355Z,11.50
2022-10-02T18:36:50.568Z,11.42
2022-10-02T20:14:52.080Z,9.68
2022-10-02T20:17:19.512Z,9.63
2022-10-02T20:20:02.170Z,9.67
2022-10-02T20:22:48.719Z,9.69
2022-10-02T20:25:21.925Z,9.73
2022-10-02T20:28:08.631Z,9.76
2022-10-02T20:30:43.331Z,9.76
2022-10-02T20:33:20.185Z,9.76
2022-10-02T20:35:51.579Z,9.75
2022-10-02T20:38:31.497Z,9.74
2022-10-02T20:41:01.139Z,9.74
2022-10-02T20:43:32.689Z,9.73
2022-10-02T20:46:11.731Z,9.73
2022-10-02T20:49:08.436Z,9.72
2022-10-02T20:51:52.883Z,9.71
2022-10-02T20:54:42.499Z,9.72
2022-10-02T20:57:29.756Z,9.72
2022-10-02T21:00:06.576Z,9.73
2022-10-02T21:03:13.457Z,9.70
2022-10-02T21:05:53.669Z,9.64
2022-10-02T21:09:09.178Z,9.58
2022-10-02T21:12:06.345Z,9.55
2022-10-02T21:14:59.305Z,9.51
2022-10-02T21:17:54.141Z,9.48
2022-10-02T21:20:33.379Z,9.48
2022-10-02T21:23:47.532Z,9.46
2022-10-02T21:26:36.056Z,9.46
2022-10-02T21:29:37.618Z,9.43
2022-10-02T21:32:35.293Z,9.43
2022-10-02T21:35:27.021Z,9.43
2022-10-02T21:38:25.882Z,9.41
2022-10-02T21:41:26.931Z,9.39
2022-10-02T21:44:16.355Z,9.39
2022-10-02T21:47:19.151Z,9.36
2022-10-02T21:50:22.619Z,9.32
2022-10-02T21:53:13.827Z,9.26
2022-10-02T21:55:55.424Z,9.22
2022-10-02T21:58:24.790Z,9.19
2022-10-02T22:01:29.396Z,9.16
2022-10-02T22:04:02.458Z,9.14
2022-10-02T22:06:58.490Z,9.11
2022-10-02T22:09:35.875Z,9.07
2022-10-02T22:12:08.377Z,9.08
2022-10-02T22:14:45.222Z,9.07
2022-10-02T22:17:18.011Z,9.04
2022-10-02T22:20:12.529Z,9.00
2022-10-02T22:22:53.959Z,8.97
2022-10-02T22:25:26.965Z,8.97
2022-10-02T22:28:02.898Z,8.96
2022-10-02T22:30:39.531Z,8.96
2022-10-02T22:33:15.406Z,8.96
2022-10-02T22:36:07.642Z,8.97
2022-10-02T22:38:35.028Z,8.94
2022-10-02T22:41:08.570Z,8.92
2022-10-02T22:43:44.734Z,8.89
2022-10-02T22:46:17.440Z,8.88
2022-10-02T22:48:59.474Z,8.86
2022-10-02T22:51:38.843Z,8.84
2022-10-02T22:54:15.185Z,8.84
2022-10-02T22:57:08.962Z,8.79
2022-10-02T22:59:58.249Z,8.77
2022-10-02T23:02:46.386Z,8.74
2022-10-02T23:05:47.625Z,8.70
2022-10-02T23:08:34.356Z,8.66
2022-10-02T23:11:16.191Z,8.60
2022-10-02T23:13:48.663Z,8.56
2022-10-02T23:16:40.879Z,8.54
2022-10-02T23:19:25.903Z,8.54
2022-10-02T23:22:22.159Z,8.54
2022-10-02T23:25:14.929Z,8.52
2022-10-02T23:28:06.246Z,8.55
2022-10-02T23:30:43.138Z,8.56
2022-10-02T23:33:28.343Z,8.58
2022-10-02T23:36:06.832Z,8.54
2022-10-02T23:38:42.076Z,8.53
2022-10-02T23:41:46.775Z,8.53
2022-10-02T23:44:17.263Z,8.55
2022-10-02T23:46:49.835Z,8.56
2022-10-02T23:49:35.790Z,8.58
2022-10-02T23:52:15.096Z,8.61
2022-10-02T23:54:56.755Z,8.61
2022-10-02T23:57:32.953Z,8.60
